This is the latest recevied weather packets stored in our database for station/object KF5VOI. If no packets are shown the sender has not sent any weather packets the latest 10 day(s).
| Time | Temp. | Humidity | Pressure | Rain* | Wind** | Luminosity | Snow |
|---|---|---|---|---|---|---|---|
| 1777850797 | 27.22° C | 40% | 1020 hPa | 0 mm | - | - | - |
| 1777848994 | 27.78° C | 39% | 1020.1 hPa | 0 mm | - | - | - |
| 1777847194 | 28.33° C | 38% | 1020.2 hPa | 0 mm | - | - | - |
| 1777845394 | 27.22° C | 38% | 1020.6 hPa | 0 mm | - | - | - |
| 1777843595 | 27.22° C | 37% | 1021 hPa | 0 mm | - | - | - |
| 1777841794 | 27.22° C | 37% | 1021.4 hPa | 0 mm | - | - | - |
| 1777839994 | 28.33° C | 36% | 1022 hPa | 0 mm | - | - | - |
| 1777838194 | 27.78° C | 36% | 1022.2 hPa | 0 mm | - | - | - |
| 1777836394 | 27.22° C | 38% | 1022.8 hPa | 0 mm | - | - | - |
| 1777832797 | 26.67° C | 37% | 1023.2 hPa | 0 mm | - | - | - |
| 1777830996 | 26.67° C | 37% | 1023.7 hPa | 0 mm | - | - | - |
| 1777829195 | 25.56° C | 37% | 1024.4 hPa | 0 mm | - | - | - |
| 1777827394 | 25.56° C | 36% | 1024.7 hPa | 0 mm | - | - | - |
| 1777825594 | 25.56° C | 37% | 1024.6 hPa | 0 mm | - | - | - |
| 1777823794 | 25.56° C | 38% | 1024.6 hPa | 0 mm | - | - | - |
| 1777821994 | 25° C | 39% | 1024.4 hPa | 0 mm | - | - | - |
| 1777820194 | 25° C | 39% | 1024.3 hPa | 0 mm | - | - | - |
| 1777816594 | 23.33° C | 54% | 1023.7 hPa | 0 mm | - | - | - |
| 1777812994 | 15° C | 91% | 1023.3 hPa | 0 mm | - | - | - |
| 1777811196 | 12.22° C | 98% | 1022.9 hPa | 0 mm | - | - | - |
| 1777809430 | 10.56° C | 99% | 1022.8 hPa | 0 mm | - | - | - |
| 1777809394 | 10.56° C | 99% | 1022.8 hPa | 0 mm | - | - | - |
| 1777807594 | 10.56° C | 99% | 1022.3 hPa | 0 mm | - | - | - |
| 1777805794 | 11.11° C | 97% | 1022.3 hPa | 0 mm | - | - | - |
| 1777803994 | 11.11° C | 94% | 1022.3 hPa | 0 mm | - | - | - |
* Rain latest hour (hover to see other rain measurements)
** Current wind speed in m/s (hover to see current wind gust speed)